createdAt,value
2023-02-16T00:01:58.945Z,18.60
2023-02-16T00:04:30.466Z,19.23
2023-02-16T00:06:57.764Z,21.87
2023-02-16T00:09:24.774Z,17.57
2023-02-16T00:12:11.937Z,20.30
2023-02-16T00:14:39.669Z,20.27
2023-02-16T00:17:07.073Z,18.60
2023-02-16T00:19:38.359Z,24.73
2023-02-16T00:22:06.438Z,16.00
2023-02-16T00:24:33.125Z,17.17
2023-02-16T00:27:00.688Z,19.60
2023-02-16T00:29:30.569Z,20.87
2023-02-16T00:31:58.811Z,23.70
2023-02-16T00:34:36.140Z,19.40
2023-02-16T00:37:05.570Z,18.63
2023-02-16T00:39:32.945Z,20.93
2023-02-16T00:42:04.712Z,20.93
2023-02-16T00:44:39.373Z,16.10
2023-02-16T00:47:20.932Z,17.70
2023-02-16T00:49:49.551Z,18.37
2023-02-16T00:52:36.627Z,20.30
2023-02-16T00:55:07.085Z,20.43
2023-02-16T00:57:42.098Z,14.43
2023-02-16T01:00:24.996Z,16.37
2023-02-16T01:02:54.644Z,19.30
2023-02-16T01:05:21.755Z,21.67
2023-02-16T01:08:07.143Z,15.50
2023-02-16T01:10:53.476Z,20.30
2023-02-16T01:13:20.165Z,18.27
2023-02-16T01:15:46.827Z,16.97
2023-02-16T01:18:15.376Z,16.87
2023-02-16T01:20:42.088Z,17.00
2023-02-16T01:23:09.176Z,16.30
2023-02-16T01:25:36.911Z,21.50
2023-02-16T01:28:14.027Z,20.87
2023-02-16T01:30:40.582Z,23.67
2023-02-16T01:33:08.303Z,19.33
2023-02-16T01:35:34.898Z,16.90
2023-02-16T01:38:01.650Z,18.90
2023-02-16T01:40:34.222Z,19.80
2023-02-16T01:43:26.295Z,20.67
2023-02-16T01:46:03.393Z,15.53
2023-02-16T01:48:32.288Z,13.27
2023-02-16T01:51:10.916Z,17.13
2023-02-16T01:53:44.060Z,17.53
2023-02-16T01:56:33.051Z,16.87
2023-02-16T01:59:08.804Z,13.57
2023-02-16T02:02:13.016Z,15.33
2023-02-16T02:05:10.396Z,16.07
2023-02-16T02:07:45.431Z,15.23
2023-02-16T02:10:35.432Z,18.53
2023-02-16T02:13:11.126Z,19.23
2023-02-16T02:15:37.705Z,15.43
2023-02-16T02:18:04.395Z,18.53
2023-02-16T02:21:08.478Z,20.07
2023-02-16T02:23:53.259Z,12.70
2023-02-16T02:26:58.473Z,15.87
2023-02-16T02:29:24.982Z,18.57
2023-02-16T02:32:10.333Z,18.27
2023-02-16T02:34:58.284Z,16.20
2023-02-16T02:37:56.843Z,13.20
2023-02-16T02:40:39.554Z,18.07
2023-02-16T02:43:22.956Z,14.53
2023-02-16T02:45:56.332Z,13.10
2023-02-16T02:48:22.937Z,15.77
2023-02-16T02:51:30.098Z,13.03
2023-02-16T02:54:19.725Z,21.27
2023-02-16T02:57:26.819Z,15.53
2023-02-16T03:00:21.292Z,17.77
2023-02-16T03:02:50.819Z,14.67
2023-02-16T03:05:20.318Z,15.97
2023-02-16T03:07:51.747Z,16.47
2023-02-16T03:10:41.375Z,15.73
2023-02-16T03:13:21.417Z,16.97
2023-02-16T03:15:49.879Z,16.07
2023-02-16T03:18:35.550Z,18.80
2023-02-16T03:21:21.760Z,19.63
2023-02-16T03:24:09.128Z,11.33
2023-02-16T03:26:55.680Z,14.93
2023-02-16T03:29:24.596Z,17.43
2023-02-16T03:31:54.271Z,15.73
2023-02-16T03:34:21.978Z,14.03
2023-02-16T03:36:52.234Z,20.37
2023-02-16T03:39:19.796Z,26.93
2023-02-16T03:41:50.128Z,18.80
2023-02-16T03:44:17.467Z,15.67
2023-02-16T03:46:44.288Z,19.67
2023-02-16T03:49:10.915Z,21.37
2023-02-16T03:51:37.892Z,15.63
2023-02-16T03:54:04.704Z,16.50
2023-02-16T03:56:31.273Z,17.13
2023-02-16T03:58:57.854Z,22.90
2023-02-16T04:01:24.609Z,11.80
2023-02-16T04:03:51.263Z,16.10
2023-02-16T04:06:17.964Z,17.00
2023-02-16T04:08:44.566Z,18.07
2023-02-16T04:11:29.822Z,14.23
2023-02-16T04:13:56.370Z,15.97
2023-02-16T04:16:22.996Z,18.73
2023-02-16T04:18:49.810Z,15.80
2023-02-16T04:21:16.669Z,17.80
2023-02-16T04:23:43.224Z,19.63
2023-02-16T04:26:09.811Z,14.67
2023-02-16T04:28:36.355Z,16.53
2023-02-16T04:31:03.404Z,16.17
2023-02-16T04:33:30.203Z,19.37
2023-02-16T04:35:56.781Z,17.57
2023-02-16T04:38:23.574Z,14.60
2023-02-16T04:40:50.110Z,18.43
2023-02-16T04:43:16.744Z,18.87
2023-02-16T04:45:43.355Z,18.73
2023-02-16T04:48:09.975Z,18.30
2023-02-16T04:50:36.519Z,15.13
2023-02-16T04:53:04.011Z,17.37
2023-02-16T04:55:30.858Z,20.50
2023-02-16T04:57:57.668Z,14.63
2023-02-16T05:00:24.546Z,17.40
2023-02-16T05:02:51.115Z,19.30
2023-02-16T05:05:17.837Z,16.77
2023-02-16T05:07:44.635Z,22.80
2023-02-16T05:10:11.262Z,24.93
2023-02-16T05:12:56.337Z,21.27
2023-02-16T05:15:23.011Z,18.57
2023-02-16T05:17:49.637Z,16.33
2023-02-16T05:20:16.282Z,18.23
2023-02-16T05:22:44.298Z,18.17
2023-02-16T05:25:10.925Z,19.03
2023-02-16T05:27:37.495Z,21.57
2023-02-16T05:30:04.447Z,21.23
2023-02-16T05:32:31.096Z,22.10
2023-02-16T05:34:57.662Z,17.97
2023-02-16T05:37:24.248Z,23.13
2023-02-16T05:39:52.646Z,22.93
2023-02-16T05:42:19.232Z,27.80
2023-02-16T05:44:45.814Z,22.47
2023-02-16T05:47:12.631Z,30.15
2023-02-16T05:49:39.301Z,27.67
2023-02-16T05:52:05.974Z,20.93
2023-02-16T05:54:32.796Z,23.50
2023-02-16T05:56:59.425Z,19.30
2023-02-16T05:59:26.087Z,19.60
2023-02-16T06:01:52.841Z,21.60
2023-02-16T06:04:20.959Z,17.10
2023-02-16T06:06:47.948Z,22.17
2023-02-16T06:09:14.811Z,18.60
2023-02-16T06:11:41.468Z,19.77
2023-02-16T06:14:16.938Z,21.20
2023-02-16T06:16:46.003Z,20.07
2023-02-16T06:19:13.655Z,19.43
2023-02-16T06:21:41.176Z,18.10
2023-02-16T06:24:10.350Z,17.57
2023-02-16T06:26:37.247Z,18.10
2023-02-16T06:29:05.048Z,18.00
2023-02-16T06:31:33.854Z,20.23
2023-02-16T06:34:03.597Z,23.77
2023-02-16T06:36:30.507Z,21.60
2023-02-16T06:38:57.135Z,19.43
2023-02-16T06:41:35.503Z,19.70
2023-02-16T06:44:05.047Z,20.03
2023-02-16T06:46:31.905Z,21.20
2023-02-16T06:48:58.643Z,18.53
2023-02-16T06:51:25.645Z,22.33
2023-02-16T06:53:52.360Z,21.27
2023-02-16T06:56:18.981Z,18.27
2023-02-16T06:58:45.586Z,20.10
2023-02-16T07:01:12.517Z,17.10
2023-02-16T07:03:39.739Z,19.93
2023-02-16T07:06:06.700Z,19.43
2023-02-16T07:08:35.524Z,18.83
2023-02-16T07:11:02.492Z,19.50
2023-02-16T07:13:29.121Z,23.03
2023-02-16T07:15:55.696Z,19.67
2023-02-16T07:18:22.313Z,19.10
2023-02-16T07:20:48.929Z,22.30
2023-02-16T07:23:15.506Z,15.83
2023-02-16T07:25:42.103Z,20.43
2023-02-16T07:28:08.710Z,21.13
2023-02-16T07:30:36.176Z,21.17
2023-02-16T07:33:03.053Z,22.03
2023-02-16T07:35:29.627Z,25.83
2023-02-16T07:37:56.278Z,21.73
2023-02-16T07:40:23.055Z,21.30
2023-02-16T07:42:49.616Z,23.23
2023-02-16T07:45:16.171Z,19.97
2023-02-16T07:47:42.777Z,21.03
2023-02-16T07:50:09.973Z,17.77
2023-02-16T07:52:36.634Z,19.87
2023-02-16T07:55:03.568Z,24.20
2023-02-16T07:57:30.184Z,22.90
2023-02-16T07:59:56.980Z,18.23
2023-02-16T08:02:24.113Z,24.30
2023-02-16T08:04:52.603Z,22.20
2023-02-16T08:07:20.420Z,20.60
2023-02-16T08:09:47.333Z,17.43
2023-02-16T08:12:15.572Z,22.47
2023-02-16T08:14:42.931Z,23.30
2023-02-16T08:17:09.814Z,19.70
2023-02-16T08:19:40.226Z,18.53
2023-02-16T08:22:08.489Z,21.80
2023-02-16T08:24:35.660Z,20.40
2023-02-16T08:27:04.250Z,17.77
2023-02-16T08:29:31.760Z,29.70
2023-02-16T08:31:58.873Z,16.60
2023-02-16T08:34:26.301Z,21.00
2023-02-16T08:36:56.380Z,17.70
2023-02-16T08:39:26.393Z,20.50
2023-02-16T08:41:53.963Z,19.90
2023-02-16T08:44:22.386Z,19.67
2023-02-16T08:46:50.279Z,28.53
2023-02-16T08:49:18.755Z,20.43
2023-02-16T08:51:48.962Z,20.30
2023-02-16T08:54:18.722Z,24.27
2023-02-16T08:56:47.785Z,22.40
2023-02-16T08:59:17.005Z,24.87
2023-02-16T09:01:43.681Z,22.37
2023-02-16T09:04:10.419Z,23.47
2023-02-16T09:06:38.492Z,26.03
2023-02-16T09:09:05.659Z,23.13
2023-02-16T09:11:32.883Z,21.20
2023-02-16T09:13:59.542Z,22.83
2023-02-16T09:16:29.132Z,20.53
2023-02-16T09:18:57.321Z,21.60
2023-02-16T09:21:25.480Z,22.10
2023-02-16T09:23:55.652Z,26.37
2023-02-16T09:26:23.878Z,21.83
2023-02-16T09:28:51.215Z,24.03
2023-02-16T09:31:25.406Z,19.67
2023-02-16T09:33:54.014Z,27.73
2023-02-16T09:36:20.680Z,28.67
2023-02-16T09:38:50.117Z,30.40
2023-02-16T09:41:22.936Z,21.80
2023-02-16T09:43:56.542Z,20.53
2023-02-16T09:46:25.266Z,22.60
2023-02-16T09:48:53.004Z,24.20
2023-02-16T09:51:42.387Z,21.17
2023-02-16T09:54:21.661Z,34.85
2023-02-16T09:57:00.157Z,25.77
2023-02-16T09:59:45.751Z,23.17
2023-02-16T10:02:55.614Z,21.57
2023-02-16T10:06:01.032Z,16.60
2023-02-16T10:08:31.223Z,20.77
2023-02-16T10:11:32.873Z,24.87
2023-02-16T10:14:08.251Z,21.07
2023-02-16T10:16:42.547Z,26.33
2023-02-16T10:19:26.005Z,29.67
2023-02-16T10:21:58.548Z,29.53
2023-02-16T10:24:27.801Z,24.10
2023-02-16T10:27:02.479Z,24.03
2023-02-16T10:29:29.245Z,35.00
2023-02-16T10:31:59.012Z,36.07
2023-02-16T10:35:15.161Z,28.77
2023-02-16T10:38:18.121Z,27.03
2023-02-16T10:41:30.141Z,22.97
2023-02-16T10:44:02.382Z,18.33
2023-02-16T10:46:36.644Z,25.50
2023-02-16T10:49:03.283Z,27.70
2023-02-16T10:51:36.821Z,33.33
2023-02-16T10:54:12.953Z,23.03
2023-02-16T10:56:49.516Z,25.77
2023-02-16T10:59:21.052Z,22.60
2023-02-16T11:01:51.887Z,26.03
2023-02-16T11:04:37.763Z,20.90
2023-02-16T11:07:06.296Z,25.93
2023-02-16T11:09:33.177Z,21.90
2023-02-16T11:12:00.451Z,22.17
2023-02-16T11:14:30.778Z,25.60
2023-02-16T11:17:16.559Z,25.03
2023-02-16T11:19:56.175Z,23.13
2023-02-16T11:22:36.850Z,26.30
2023-02-16T11:25:21.910Z,25.70
2023-02-16T11:28:01.906Z,25.63
2023-02-16T11:30:38.043Z,24.40
2023-02-16T11:33:20.391Z,24.90
2023-02-16T11:35:47.700Z,21.13
2023-02-16T11:38:35.393Z,23.77
2023-02-16T11:41:05.144Z,28.10
2023-02-16T11:43:37.141Z,26.53
2023-02-16T11:46:07.107Z,27.83
2023-02-16T11:48:34.347Z,24.60
2023-02-16T11:51:08.562Z,24.87
2023-02-16T11:53:37.955Z,30.70
2023-02-16T11:56:27.206Z,25.53
2023-02-16T11:59:20.696Z,24.63
2023-02-16T12:01:56.065Z,23.37
2023-02-16T12:05:00.829Z,28.27
2023-02-16T12:07:57.006Z,29.20
2023-02-16T12:10:45.037Z,28.63
2023-02-16T12:13:33.007Z,25.53
2023-02-16T12:16:16.564Z,24.80
2023-02-16T12:18:50.212Z,27.23
2023-02-16T12:21:37.264Z,28.70
2023-02-16T12:24:28.703Z,26.13
2023-02-16T12:26:58.464Z,23.83
2023-02-16T12:29:47.670Z,26.43
2023-02-16T12:32:39.051Z,28.43
2023-02-16T12:35:42.787Z,30.53
2023-02-16T12:38:22.294Z,30.70
2023-02-16T12:41:17.984Z,36.20
2023-02-16T12:44:01.906Z,28.80
2023-02-16T12:46:36.614Z,24.53
2023-02-16T12:49:12.720Z,29.30
2023-02-16T12:51:45.868Z,30.83
2023-02-16T12:54:40.849Z,34.53
2023-02-16T12:57:13.690Z,29.00
2023-02-16T12:59:55.446Z,27.30
2023-02-16T13:02:51.283Z,29.23
2023-02-16T13:05:30.448Z,26.10
2023-02-16T13:08:15.815Z,28.37
2023-02-16T13:11:07.537Z,26.93
2023-02-16T13:13:35.462Z,29.20
2023-02-16T13:16:17.364Z,24.73
2023-02-16T13:18:52.688Z,28.17
2023-02-16T13:21:51.923Z,29.03
2023-02-16T13:24:27.784Z,30.93
2023-02-16T13:27:09.391Z,31.77
2023-02-16T13:29:52.459Z,23.53
2023-02-16T13:32:32.211Z,28.57
2023-02-16T13:35:35.565Z,26.10
2023-02-16T13:38:18.965Z,31.83
2023-02-16T13:41:09.367Z,21.03
2023-02-16T13:44:00.271Z,25.17
2023-02-16T13:46:38.802Z,30.93
2023-02-16T13:49:06.492Z,31.30
2023-02-16T13:51:44.653Z,27.30
2023-02-16T13:54:27.964Z,27.60
2023-02-16T13:56:54.855Z,28.90
2023-02-16T13:59:22.222Z,21.83
2023-02-16T14:01:50.565Z,26.10
2023-02-16T14:04:22.908Z,27.03
2023-02-16T14:07:13.271Z,29.47
2023-02-16T14:09:39.863Z,30.97
2023-02-16T14:12:09.437Z,24.93
2023-02-16T14:14:55.224Z,22.50
2023-02-16T14:17:22.008Z,27.40
2023-02-16T14:19:54.179Z,25.97
2023-02-16T14:22:42.875Z,31.60
2023-02-16T14:25:22.171Z,22.60
2023-02-16T14:27:48.759Z,39.55
2023-02-16T14:30:33.811Z,36.23
2023-02-16T14:33:12.371Z,22.50
2023-02-16T14:35:41.800Z,36.13
2023-02-16T14:38:26.709Z,26.47
2023-02-16T14:40:57.522Z,28.03
2023-02-16T14:43:28.007Z,22.47
2023-02-16T14:46:31.953Z,31.93
2023-02-16T14:49:23.957Z,27.73
2023-02-16T14:52:27.756Z,23.70
2023-02-16T14:54:54.277Z,26.77
2023-02-16T14:57:52.097Z,22.17
2023-02-16T15:00:29.007Z,25.67
2023-02-16T15:02:59.403Z,23.00
2023-02-16T15:05:32.900Z,26.10
2023-02-16T15:08:23.740Z,26.60
2023-02-16T15:10:55.738Z,32.53
2023-02-16T15:13:30.661Z,23.53
2023-02-16T15:16:00.636Z,23.57
2023-02-16T15:18:40.894Z,25.63
2023-02-16T15:21:20.747Z,31.10
2023-02-16T15:23:50.336Z,26.13
2023-02-16T15:26:22.669Z,22.30
2023-02-16T15:29:20.440Z,26.50
2023-02-16T15:31:48.047Z,26.03
2023-02-16T15:34:30.615Z,28.97
2023-02-16T15:36:57.276Z,27.97
2023-02-16T15:39:45.216Z,19.97
2023-02-16T15:42:22.142Z,24.40
2023-02-16T15:44:49.165Z,22.83
2023-02-16T15:47:24.573Z,23.93
2023-02-16T15:49:52.659Z,25.87
2023-02-16T15:52:37.757Z,26.50
2023-02-16T15:55:09.025Z,21.77
2023-02-16T15:57:38.524Z,24.83
2023-02-16T16:00:15.667Z,20.70
2023-02-16T16:02:47.352Z,25.53
2023-02-16T16:05:29.064Z,25.87
2023-02-16T16:07:57.122Z,21.57
2023-02-16T16:10:29.238Z,28.93
2023-02-16T16:13:03.041Z,23.63
2023-02-16T16:15:34.059Z,25.90
2023-02-16T16:18:02.498Z,23.80
2023-02-16T16:20:42.187Z,29.33
2023-02-16T16:23:14.954Z,22.63
2023-02-16T16:25:46.906Z,21.80
2023-02-16T16:28:27.510Z,20.87
2023-02-16T16:31:17.109Z,26.17
2023-02-16T16:33:58.915Z,21.80
2023-02-16T16:36:41.867Z,20.80
2023-02-16T16:39:19.644Z,23.57
2023-02-16T16:42:06.631Z,37.97
2023-02-16T16:44:34.562Z,42.55
2023-02-16T16:47:22.580Z,26.97
2023-02-16T16:50:01.553Z,27.50
2023-02-16T16:52:42.140Z,24.70
2023-02-16T16:55:40.288Z,21.27
2023-02-16T16:58:08.310Z,24.33
2023-02-16T17:00:38.297Z,24.97
2023-02-16T17:03:07.617Z,24.80
2023-02-16T17:05:35.762Z,21.60
2023-02-16T17:08:02.337Z,38.10
2023-02-16T17:10:29.526Z,32.27
2023-02-16T17:12:58.407Z,36.63
2023-02-16T17:15:47.760Z,30.17
2023-02-16T17:18:17.736Z,23.83
2023-02-16T17:20:45.597Z,26.83
2023-02-16T17:23:14.586Z,24.30
2023-02-16T17:25:42.287Z,37.47
2023-02-16T17:28:09.946Z,39.78
2023-02-16T17:30:37.491Z,26.53
2023-02-16T17:33:04.599Z,27.80
2023-02-16T17:35:31.818Z,22.63
2023-02-16T17:37:58.709Z,32.63
2023-02-16T17:40:25.751Z,22.23
2023-02-16T17:42:52.436Z,21.93
2023-02-16T17:45:21.930Z,38.08
2023-02-16T17:47:50.988Z,40.22
2023-02-16T17:50:18.607Z,32.30
2023-02-16T17:52:45.446Z,34.37
2023-02-16T17:55:12.800Z,20.93
2023-02-16T17:57:39.445Z,22.50
2023-02-16T18:00:08.198Z,41.38
2023-02-16T18:02:34.915Z,47.50
2023-02-16T18:05:01.589Z,40.97
2023-02-16T18:07:28.172Z,26.87
2023-02-16T18:09:54.845Z,24.57
2023-02-16T18:12:21.427Z,22.93
2023-02-16T18:14:48.056Z,18.00
2023-02-16T18:17:14.661Z,19.00
2023-02-16T18:19:41.304Z,19.23
2023-02-16T18:22:07.944Z,18.90
2023-02-16T18:24:34.490Z,28.27
2023-02-16T18:27:01.184Z,19.13
2023-02-16T18:29:27.787Z,17.90
2023-02-16T18:31:54.455Z,23.10
2023-02-16T18:34:21.455Z,23.53
2023-02-16T18:36:48.082Z,22.57
2023-02-16T18:39:14.930Z,23.13
2023-02-16T18:41:41.486Z,21.73
2023-02-16T18:44:08.100Z,22.03
2023-02-16T18:46:34.803Z,18.33
2023-02-16T18:49:01.422Z,17.43
2023-02-16T18:51:31.675Z,20.10
2023-02-16T18:53:58.327Z,18.97
2023-02-16T18:56:25.260Z,19.43
2023-02-16T18:58:51.818Z,20.17
2023-02-16T19:01:29.243Z,19.93
2023-02-16T19:03:56.171Z,18.07
2023-02-16T19:06:22.954Z,19.17
2023-02-16T19:08:51.192Z,25.60
2023-02-16T19:11:21.019Z,17.90
2023-02-16T19:13:48.760Z,18.43
2023-02-16T19:16:16.934Z,22.53
2023-02-16T19:18:43.662Z,17.77
2023-02-16T19:21:12.061Z,20.50
2023-02-16T19:23:38.945Z,24.23
2023-02-16T19:26:11.210Z,18.17
2023-02-16T19:28:38.972Z,22.07
2023-02-16T19:31:08.519Z,22.33
2023-02-16T19:33:35.797Z,21.60
2023-02-16T19:36:08.478Z,21.57
2023-02-16T19:38:35.195Z,17.47
2023-02-16T19:41:08.651Z,19.53
2023-02-16T19:43:35.447Z,22.57
2023-02-16T19:46:05.478Z,21.73
2023-02-16T19:48:32.661Z,21.27
2023-02-16T19:51:00.953Z,20.70
2023-02-16T19:53:27.598Z,21.57
2023-02-16T19:55:54.696Z,19.73
2023-02-16T19:58:22.312Z,24.70
2023-02-16T20:00:49.223Z,26.40
2023-02-16T20:03:16.461Z,19.73
2023-02-16T20:05:43.700Z,24.43
2023-02-16T20:08:10.598Z,22.17
2023-02-16T20:10:44.666Z,24.57
2023-02-16T20:13:11.332Z,23.90
2023-02-16T20:15:38.332Z,22.80
2023-02-16T20:18:06.467Z,28.20
2023-02-16T20:20:34.112Z,24.70
2023-02-16T20:23:00.646Z,27.20
2023-02-16T20:25:27.280Z,27.37
2023-02-16T20:27:56.374Z,30.03
2023-02-16T20:30:25.229Z,27.77
2023-02-16T20:32:52.117Z,27.20
2023-02-16T20:35:18.675Z,27.87
2023-02-16T20:37:45.283Z,23.40
2023-02-16T20:40:12.224Z,27.30
2023-02-16T20:42:38.848Z,27.07
2023-02-16T20:45:05.861Z,28.70
2023-02-16T20:47:32.448Z,28.67
2023-02-16T20:49:59.060Z,27.37
2023-02-16T20:52:25.654Z,25.17
2023-02-16T20:54:52.199Z,27.73
2023-02-16T20:57:26.856Z,28.03
2023-02-16T20:59:54.883Z,26.60
2023-02-16T21:02:21.513Z,31.33
2023-02-16T21:04:48.209Z,26.67
2023-02-16T21:07:14.761Z,28.33
2023-02-16T21:09:41.357Z,25.53
2023-02-16T21:12:07.973Z,28.43
2023-02-16T21:14:34.653Z,26.33
2023-02-16T21:17:01.225Z,28.40
2023-02-16T21:19:27.888Z,30.92
2023-02-16T21:21:54.531Z,54.67
2023-02-16T21:24:21.095Z,37.27
2023-02-16T21:26:47.770Z,33.83
2023-02-16T21:29:14.545Z,28.93
2023-02-16T21:31:41.277Z,27.57
2023-02-16T21:34:07.905Z,31.57
2023-02-16T21:36:34.735Z,29.17
2023-02-16T21:39:02.921Z,24.40
2023-02-16T21:41:29.805Z,50.40
2023-02-16T21:43:59.165Z,30.10
2023-02-16T21:46:26.262Z,29.50
2023-02-16T21:48:53.311Z,34.13
2023-02-16T21:51:28.126Z,28.23
2023-02-16T21:53:55.731Z,45.97
2023-02-16T21:56:41.628Z,26.10
2023-02-16T21:59:11.377Z,27.67
2023-02-16T22:01:42.464Z,29.57
2023-02-16T22:04:11.801Z,29.57
2023-02-16T22:06:41.370Z,22.37
2023-02-16T22:09:12.102Z,27.10
2023-02-16T22:11:38.863Z,23.27
2023-02-16T22:14:05.894Z,26.30
2023-02-16T22:16:34.800Z,25.27
2023-02-16T22:19:10.972Z,22.83
2023-02-16T22:21:41.514Z,22.77
2023-02-16T22:24:11.007Z,21.77
2023-02-16T22:26:37.629Z,22.00
2023-02-16T22:29:06.188Z,22.37
2023-02-16T22:31:33.243Z,21.03
2023-02-16T22:34:03.091Z,20.63
2023-02-16T22:36:30.279Z,17.27
2023-02-16T22:38:57.105Z,19.73
2023-02-16T22:41:24.660Z,22.60
2023-02-16T22:43:56.151Z,23.00
2023-02-16T22:46:24.052Z,20.70
2023-02-16T22:48:51.806Z,22.33
2023-02-16T22:51:20.567Z,20.47
2023-02-16T22:53:47.824Z,20.57
2023-02-16T22:56:16.649Z,20.40
2023-02-16T22:58:43.302Z,21.37
2023-02-16T23:01:19.987Z,17.90
2023-02-16T23:03:48.952Z,21.27
2023-02-16T23:06:21.906Z,19.83
2023-02-16T23:08:53.168Z,16.00
2023-02-16T23:11:20.013Z,16.57
2023-02-16T23:13:46.617Z,17.23
2023-02-16T23:16:16.226Z,18.43
2023-02-16T23:18:43.415Z,17.10
2023-02-16T23:21:32.626Z,18.10
2023-02-16T23:24:00.056Z,15.70
2023-02-16T23:26:29.637Z,15.77
2023-02-16T23:28:58.226Z,17.90
2023-02-16T23:31:24.935Z,16.47
2023-02-16T23:33:51.691Z,15.80
2023-02-16T23:36:18.445Z,17.27
2023-02-16T23:38:44.978Z,14.70
2023-02-16T23:41:12.907Z,15.20
2023-02-16T23:43:40.011Z,14.30
2023-02-16T23:46:07.882Z,13.33
2023-02-16T23:48:34.899Z,16.57
2023-02-16T23:51:01.869Z,13.70
2023-02-16T23:53:28.890Z,17.50
2023-02-16T23:56:07.214Z,16.23
2023-02-16T23:58:37.011Z,14.03
